createdAt,value
2022-08-10T00:00:51.665Z,11.55
2022-08-10T00:05:54.985Z,12.05
2022-08-10T00:10:57.787Z,10.52
2022-08-10T00:16:00.020Z,10.87
2022-08-10T00:21:06.380Z,8.65
2022-08-10T00:26:09.476Z,8.60
2022-08-10T00:31:12.250Z,8.35
2022-08-10T00:36:14.382Z,8.18
2022-08-10T00:41:16.363Z,8.77
2022-08-10T00:46:18.364Z,9.15
2022-08-10T00:51:20.485Z,10.00
2022-08-10T00:57:09.875Z,10.15
2022-08-10T01:02:08.946Z,9.32
2022-08-10T01:07:21.406Z,9.88
2022-08-10T01:12:43.597Z,9.65
2022-08-10T01:18:23.120Z,9.65
2022-08-10T01:23:40.536Z,9.88
2022-08-10T01:28:57.870Z,10.43
2022-08-10T01:34:06.533Z,9.20
2022-08-10T01:39:09.690Z,9.38
2022-08-10T01:44:14.441Z,9.57
2022-08-10T01:49:18.322Z,9.90
2022-08-10T01:54:22.351Z,9.57
2022-08-10T01:59:32.727Z,9.93
2022-08-10T02:04:36.650Z,9.90
2022-08-10T02:09:40.661Z,9.73
2022-08-10T02:14:48.430Z,9.80
2022-08-10T02:19:51.749Z,10.75
2022-08-10T02:24:54.960Z,9.80
2022-08-10T02:29:57.991Z,9.70
2022-08-10T02:35:01.639Z,11.07
2022-08-10T02:40:05.433Z,10.23
2022-08-10T02:45:29.823Z,9.95
2022-08-10T02:50:35.885Z,9.73
2022-08-10T02:55:45.474Z,10.82
2022-08-10T03:00:50.456Z,10.70
2022-08-10T03:06:05.765Z,10.63
2022-08-10T03:11:12.492Z,10.48
2022-08-10T03:16:14.701Z,12.05
2022-08-10T03:21:18.321Z,11.82
2022-08-10T03:26:20.736Z,20.25
2022-08-10T03:31:22.699Z,11.30
2022-08-10T03:36:39.972Z,10.73
2022-08-10T03:41:53.679Z,11.07
2022-08-10T03:46:59.985Z,11.70
2022-08-10T03:52:02.089Z,9.82
2022-08-10T03:57:04.274Z,10.45
2022-08-10T04:02:45.115Z,9.82
2022-08-10T04:07:29.127Z,10.07
2022-08-10T04:12:31.117Z,10.93
2022-08-10T04:18:03.133Z,11.02
2022-08-10T04:22:56.886Z,10.70
2022-08-10T04:28:03.754Z,9.88
2022-08-10T04:33:07.322Z,10.43
2022-08-10T04:38:09.981Z,10.02
2022-08-10T04:43:13.444Z,10.40
2022-08-10T04:48:43.135Z,9.65
2022-08-10T04:54:05.856Z,9.07
2022-08-10T04:59:01.135Z,9.35
2022-08-10T05:04:34.128Z,9.10
2022-08-10T05:09:25.167Z,10.40
2022-08-10T05:14:27.147Z,9.77
2022-08-10T05:20:03.058Z,10.13
2022-08-10T05:24:51.140Z,10.13
2022-08-10T05:30:01.825Z,10.18
2022-08-10T05:35:06.106Z,8.88
2022-08-10T05:40:08.713Z,8.87
2022-08-10T05:45:27.470Z,8.43
2022-08-10T05:50:34.741Z,8.60
2022-08-10T05:55:37.090Z,8.20
2022-08-10T06:00:49.776Z,7.05
2022-08-10T06:05:54.809Z,7.35
2022-08-10T06:12:28.683Z,6.45
2022-08-10T06:16:19.633Z,6.45
2022-08-10T06:21:21.848Z,6.13
2022-08-10T06:26:23.815Z,5.45
2022-08-10T06:31:27.485Z,5.60
2022-08-10T06:41:57.611Z,5.40
2022-08-10T06:47:12.276Z,5.07
2022-08-10T06:52:18.384Z,5.13
2022-08-10T06:57:21.518Z,4.45
2022-08-10T07:02:30.166Z,4.70
2022-08-10T07:07:37.596Z,5.03
2022-08-10T07:12:40.241Z,4.15
2022-08-10T07:17:42.598Z,4.65
2022-08-10T07:23:27.211Z,3.78
2022-08-10T07:28:11.338Z,3.75
2022-08-10T07:33:15.040Z,3.17
2022-08-10T07:38:19.899Z,3.22
2022-08-10T07:43:27.569Z,2.95
2022-08-10T07:48:34.584Z,3.17
2022-08-10T07:53:43.069Z,2.90
2022-08-10T07:58:51.517Z,2.80
2022-08-10T08:04:10.742Z,2.50
2022-08-10T08:09:13.735Z,2.83
2022-08-10T08:14:16.717Z,2.53
2022-08-10T08:19:28.458Z,2.58
2022-08-10T08:24:38.889Z,2.38
2022-08-10T08:29:42.729Z,2.22
2022-08-10T08:34:46.608Z,1.77
2022-08-10T08:39:48.892Z,1.80
2022-08-10T08:45:06.396Z,1.93
2022-08-10T08:50:29.972Z,2.00
2022-08-10T08:56:03.262Z,2.10
2022-08-10T09:01:20.433Z,2.50
2022-08-10T09:06:46.165Z,2.40
2022-08-10T09:12:39.758Z,2.20
2022-08-10T09:23:03.997Z,2.00
2022-08-10T09:28:08.917Z,2.03
2022-08-10T09:36:28.094Z,2.03
2022-08-10T09:38:48.040Z,2.25
2022-08-10T09:44:14.191Z,2.15
2022-08-10T09:49:53.324Z,2.10
2022-08-10T09:55:07.055Z,2.17
2022-08-10T10:00:15.203Z,2.00
2022-08-10T10:05:20.916Z,1.70
2022-08-10T10:10:27.218Z,1.95
2022-08-10T10:15:29.172Z,1.70
2022-08-10T10:20:58.796Z,2.00
2022-08-10T10:26:35.570Z,2.10
2022-08-10T10:32:14.736Z,1.83
2022-08-10T10:37:18.788Z,1.95
2022-08-10T10:42:47.124Z,1.70
2022-08-10T10:48:17.876Z,1.63
2022-08-10T10:53:36.002Z,2.00
2022-08-10T10:58:49.509Z,2.00
2022-08-10T11:04:09.893Z,1.83
2022-08-10T11:10:03.561Z,1.80
2022-08-10T11:14:46.461Z,1.60
2022-08-10T11:20:12.318Z,1.90
2022-08-10T11:25:26.734Z,1.70
2022-08-10T11:30:44.282Z,1.52
2022-08-10T11:35:54.664Z,1.50
2022-08-10T11:42:06.720Z,1.70
2022-08-10T11:46:48.092Z,1.50
2022-08-10T11:52:12.838Z,1.40
2022-08-10T11:57:15.968Z,1.80
2022-08-10T12:02:20.691Z,1.92
2022-08-10T12:10:01.776Z,1.70
2022-08-10T12:12:55.585Z,1.60
2022-08-10T12:18:02.281Z,1.60
2022-08-10T12:23:31.393Z,1.40
2022-08-10T12:28:52.057Z,1.52
2022-08-10T12:34:04.344Z,1.58
2022-08-10T12:39:16.909Z,2.00
2022-08-10T12:44:45.721Z,1.60
2022-08-10T12:50:29.322Z,1.50
2022-08-10T12:55:29.109Z,1.67
2022-08-10T13:00:33.619Z,1.50
2022-08-10T13:06:01.966Z,1.58
2022-08-10T13:11:04.454Z,1.70
2022-08-10T13:16:07.081Z,1.67
2022-08-10T13:21:20.107Z,1.63
2022-08-10T13:26:24.705Z,1.52
2022-08-10T13:32:03.404Z,1.10
2022-08-10T13:36:57.021Z,1.00
2022-08-10T13:42:04.163Z,1.40
2022-08-10T13:47:06.993Z,1.23
2022-08-10T13:52:20.853Z,1.35
2022-08-10T13:57:36.786Z,2.10
2022-08-10T14:07:53.582Z,1.80
2022-08-10T14:13:04.333Z,1.75
2022-08-10T14:18:08.108Z,2.10
2022-08-10T14:23:12.716Z,1.77
2022-08-10T14:28:15.893Z,1.80
2022-08-10T14:33:19.504Z,1.65
2022-08-10T14:38:23.025Z,2.28
2022-08-10T14:43:28.865Z,2.40
2022-08-10T14:48:41.296Z,2.67
2022-08-10T14:53:46.077Z,1.75
2022-08-10T14:59:05.631Z,1.67
2022-08-10T15:04:13.116Z,1.75
2022-08-10T15:09:19.215Z,1.85
2022-08-10T15:14:43.031Z,1.70
2022-08-10T15:20:03.021Z,1.90
2022-08-10T15:25:19.353Z,1.63
2022-08-10T15:30:31.824Z,1.90
2022-08-10T15:35:52.917Z,1.80
2022-08-10T15:40:56.858Z,2.03
2022-08-10T15:46:15.641Z,1.92
2022-08-10T15:51:54.156Z,2.08
2022-08-10T15:57:09.614Z,2.50
2022-08-10T16:02:17.473Z,2.00
2022-08-10T16:07:46.074Z,2.25
2022-08-10T16:12:59.957Z,2.63
2022-08-10T16:18:07.537Z,4.03
2022-08-10T16:23:12.872Z,26.02
2022-08-10T16:28:23.209Z,119.50
2022-08-10T16:33:54.020Z,177.85
2022-08-10T16:38:52.573Z,153.55
2022-08-10T16:43:55.217Z,46.65
2022-08-10T16:48:58.733Z,15.70
2022-08-10T16:54:02.179Z,6.50
2022-08-10T16:59:05.449Z,4.88
2022-08-10T17:09:19.115Z,4.70
2022-08-10T17:14:29.103Z,6.20
2022-08-10T17:19:36.301Z,7.30
2022-08-10T17:24:49.056Z,7.07
2022-08-10T17:30:03.688Z,7.40
2022-08-10T17:35:09.830Z,5.28
2022-08-10T17:40:16.863Z,3.75
2022-08-10T17:45:47.889Z,5.45
2022-08-10T17:50:52.899Z,5.85
2022-08-10T17:55:57.386Z,4.88
2022-08-10T18:01:41.775Z,4.30
2022-08-10T18:06:25.996Z,5.20
2022-08-10T18:11:30.251Z,6.10
2022-08-10T18:16:34.187Z,5.10
2022-08-10T18:21:41.384Z,6.40
2022-08-10T18:26:45.086Z,4.82
2022-08-10T18:31:49.002Z,7.30
2022-08-10T18:36:51.670Z,6.45
2022-08-10T18:42:04.681Z,5.25
2022-08-10T18:47:17.357Z,7.68
2022-08-10T18:52:20.805Z,7.70
2022-08-10T18:57:46.724Z,10.90
2022-08-10T19:02:57.814Z,10.15
2022-08-10T19:08:07.293Z,5.72
2022-08-10T19:13:33.470Z,6.22
2022-08-10T19:18:57.530Z,5.88
2022-08-10T19:23:59.738Z,5.32
2022-08-10T19:29:08.325Z,5.40
2022-08-10T19:34:43.385Z,6.43
2022-08-10T19:39:51.623Z,9.00
2022-08-10T19:46:01.031Z,9.25
2022-08-10T19:50:45.369Z,8.70
2022-08-10T19:56:24.365Z,9.57
2022-08-10T20:01:52.656Z,9.88
2022-08-10T20:07:11.312Z,8.97
2022-08-10T20:12:18.122Z,10.40
2022-08-10T20:17:52.162Z,13.50
2022-08-10T20:23:04.950Z,4.70
2022-08-10T20:28:34.669Z,5.35
2022-08-10T20:33:57.500Z,6.13
2022-08-10T20:39:12.428Z,5.38
2022-08-10T20:44:37.814Z,5.22
2022-08-10T20:50:12.634Z,5.13
2022-08-10T20:55:16.699Z,5.10
2022-08-10T21:00:22.969Z,6.82
2022-08-10T21:05:34.595Z,5.97
2022-08-10T21:10:58.343Z,6.70
2022-08-10T21:16:33.393Z,5.80
2022-08-10T21:21:59.389Z,9.68
2022-08-10T21:27:22.472Z,5.65
2022-08-10T21:32:59.800Z,7.53
2022-08-10T21:38:19.600Z,9.88
2022-08-10T21:43:50.200Z,6.63
2022-08-10T21:49:15.250Z,5.53
2022-08-10T21:54:41.318Z,5.43
2022-08-10T22:00:11.232Z,6.40
2022-08-10T22:11:15.289Z,5.63
2022-08-10T22:17:05.410Z,6.15
2022-08-10T22:22:31.282Z,5.68
2022-08-10T22:27:57.366Z,6.35
2022-08-10T22:31:25.745Z,5.78
2022-08-10T22:33:37.804Z,6.15
2022-08-10T22:40:11.313Z,6.13
2022-08-10T22:45:02.149Z,6.03
2022-08-10T22:50:10.415Z,7.00
2022-08-10T22:55:41.159Z,6.13
2022-08-10T23:00:55.394Z,6.20
2022-08-10T23:06:14.060Z,5.90
2022-08-10T23:11:27.132Z,5.15
2022-08-10T23:16:52.721Z,4.90
2022-08-10T23:22:05.631Z,5.30
2022-08-10T23:27:12.616Z,5.57
2022-08-10T23:32:35.194Z,4.70
2022-08-10T23:37:37.696Z,5.13
2022-08-10T23:42:53.483Z,5.10
2022-08-10T23:48:01.989Z,5.07
2022-08-10T23:53:10.740Z,5.10
2022-08-10T23:58:33.522Z,5.03
